Time;durP1;ratioP1;P1;durP2;ratioP2;P2;SDS_P1;SDS_P2;PMS_P1;PMS_P2;Temp;Humidity;BMP_temperature;BMP_pressure;BME280_temperature;BME280_humidity;BME280_pressure;Samples;Min_cycle;Max_cycle;Signal;HPM_P1;HPM_P2
2022/06/05 00:00:52;;;;;;;13.00;7.05;;;;;;;15.25;80.35;99768.25;8528161;27;20069;-73
2022/06/05 00:05:07;;;;;;;13.90;6.97;;;;;;;15.19;80.18;99759.47;8524471;27;20046;-73
2022/06/05 00:09:34;;;;;;;7.07;6.00;;;;;;;15.19;79.83;99756.75;8493258;27;20489;-72
2022/06/05 00:13:42;;;;;;;9.00;5.68;;;;;;;15.22;79.05;99758.03;8418726;28;20105;-72
2022/06/05 00:17:43;;;;;;;6.57;5.20;;;;;;;15.25;78.09;99751.13;8344456;28;20068;-72
2022/06/05 00:21:44;;;;;;;8.05;4.97;;;;;;;15.27;76.92;99749.69;8413776;28;20040;-72
2022/06/05 00:25:48;;;;;;;6.72;5.07;;;;;;;15.29;76.14;99747.44;8405034;28;20123;-73
2022/06/05 00:30:10;;;;;;;8.35;4.68;;;;;;;15.31;75.58;99745.19;8409535;28;20045;-73
2022/06/05 00:34:14;;;;;;;5.20;4.60;;;;;;;15.30;75.22;99743.59;8396508;28;20624;-71
2022/06/05 00:38:29;;;;;;;6.50;4.38;;;;;;;15.34;74.74;99744.53;8403196;28;20063;-72
2022/06/05 00:42:32;;;;;;;7.55;4.72;;;;;;;15.36;74.28;99736.84;8378034;28;20048;-72
2022/06/05 00:46:34;;;;;;;6.97;4.93;;;;;;;15.39;73.24;99725.31;8377964;28;20055;-72
2022/06/05 00:50:36;;;;;;;5.40;3.25;;;;;;;15.45;72.31;99724.00;8488965;27;20061;-73
2022/06/05 00:54:37;;;;;;;5.35;4.05;;;;;;;15.52;70.78;99724.34;8520176;27;20051;-73
2022/06/05 00:58:38;;;;;;;5.20;3.65;;;;;;;15.54;70.51;99722.13;8513415;27;20076;-73
2022/06/05 01:02:44;;;;;;;7.65;4.28;;;;;;;15.53;70.30;99730.59;8465513;27;20046;-72
2022/06/05 01:06:45;;;;;;;5.75;4.20;;;;;;;15.49;70.44;99730.41;8517136;27;20051;-72
2022/06/05 01:11:23;;;;;;;5.75;4.22;;;;;;;15.49;70.34;99730.41;8513357;27;20069;-72
2022/06/05 01:15:35;;;;;;;5.18;4.15;;;;;;;15.48;69.99;99731.53;8506800;27;20453;-72
2022/06/05 01:20:02;;;;;;;6.43;4.20;;;;;;;15.48;69.57;99734.28;8495972;27;20527;-72
2022/06/05 01:24:11;;;;;;;5.47;3.83;;;;;;;15.47;69.46;99743.56;8512773;27;20050;-72
2022/06/05 01:28:25;;;;;;;5.38;3.30;;;;;;;15.48;69.02;99733.47;8523219;27;20051;-72
2022/06/05 01:32:38;;;;;;;5.18;3.63;;;;;;;15.46;68.77;99732.97;8507420;27;20039;-71
2022/06/05 01:36:53;;;;;;;5.35;3.13;;;;;;;15.40;68.61;99726.91;8482306;27;20043;-73
2022/06/05 01:41:02;;;;;;;3.92;3.03;;;;;;;15.44;67.81;99725.13;8512349;27;20484;-72
2022/06/05 01:45:11;;;;;;;4.18;2.75;;;;;;;15.44;67.32;99722.41;8483336;27;20044;-72
2022/06/05 01:49:21;;;;;;;3.50;2.00;;;;;;;15.47;66.31;99721.78;8500415;27;20405;-72
2022/06/05 01:53:27;;;;;;;6.70;2.50;;;;;;;15.54;65.79;99722.13;8504805;27;20054;-72
2022/06/05 01:57:28;;;;;;;4.55;2.20;;;;;;;15.49;66.03;99719.50;8514727;27;20047;-72
2022/06/05 02:01:35;;;;;;;5.35;1.92;;;;;;;15.41;66.32;99723.06;8497890;27;20038;-72
2022/06/05 02:05:52;;;;;;;2.20;2.00;;;;;;;15.34;66.81;99722.78;8502418;27;20047;-73
2022/06/05 02:10:00;;;;;;;3.10;2.20;;;;;;;15.24;67.29;99723.13;8473906;27;20053;-72
2022/06/05 02:14:03;;;;;;;3.00;2.10;;;;;;;15.15;67.81;99715.00;8512996;27;20046;-73
2022/06/05 02:18:05;;;;;;;3.17;2.40;;;;;;;15.05;68.23;99719.97;8514141;27;20058;-72
2022/06/05 02:22:15;;;;;;;2.70;2.50;;;;;;;14.94;68.67;99729.59;8514023;27;20047;-72
2022/06/05 02:26:16;;;;;;;3.88;2.67;;;;;;;14.85;68.59;99726.09;8477887;27;20509;-72
2022/06/05 02:30:18;;;;;;;6.97;4.18;;;;;;;14.90;68.12;99723.19;8509707;27;20078;-73
2022/06/05 02:34:42;;;;;;;5.78;4.18;;;;;;;15.05;67.95;99725.41;8525187;27;20047;-72
2022/06/05 02:38:48;;;;;;;6.15;4.43;;;;;;;15.11;67.89;99730.38;8357210;28;20052;-72
2022/06/05 02:43:30;;;;;;;5.43;4.10;;;;;;;15.12;68.16;99731.16;8347247;28;20037;-72
2022/06/05 02:47:56;;;;;;;6.30;3.58;;;;;;;15.00;68.93;99755.50;8249805;28;20088;-72
2022/06/05 02:52:02;;;;;;;6.88;3.42;;;;;;;14.93;69.21;99750.53;8235175;28;20050;-72
2022/06/05 02:56:06;;;;;;;6.60;3.30;;;;;;;14.93;69.77;99749.75;8236738;28;20205;-71
2022/06/05 03:00:17;;;;;;;6.30;3.40;;;;;;;14.90;70.02;99744.97;8263274;28;20046;-71
2022/06/05 03:04:18;;;;;;;8.05;3.25;;;;;;;14.78;70.45;99760.00;8254697;28;20047;-73
2022/06/05 03:08:20;;;;;;;4.40;3.28;;;;;;;14.65;70.49;99755.50;8264947;28;20050;-73
2022/06/05 03:12:21;;;;;;;7.40;3.25;;;;;;;14.61;70.95;99760.00;8281000;28;20081;-72
2022/06/05 03:16:22;;;;;;;5.13;3.42;;;;;;;14.65;71.76;99771.81;8363451;28;20040;-72
2022/06/05 03:20:23;;;;;;;6.10;3.90;;;;;;;14.51;72.53;99787.47;8433069;27;20565;-71
2022/06/05 03:24:24;;;;;;;4.43;3.85;;;;;;;14.41;73.19;99795.94;8527577;27;20051;-72
2022/06/05 03:28:25;;;;;;;5.00;4.18;;;;;;;14.32;73.52;99805.97;8520855;27;20572;-73
2022/06/05 03:32:27;;;;;;;8.45;4.40;;;;;;;14.30;73.68;99808.19;8525262;27;20062;-72
2022/06/05 03:36:27;;;;;;;11.35;4.70;;;;;;;14.19;74.12;99801.44;8462511;27;20069;-72
2022/06/05 03:40:28;;;;;;;7.32;4.80;;;;;;;14.09;74.75;99796.31;8520553;27;20051;-72
2022/06/05 03:44:29;;;;;;;5.85;5.05;;;;;;;14.03;74.85;99808.44;8514625;27;20054;-74
2022/06/05 03:48:31;;;;;;;6.57;5.30;;;;;;;13.96;75.56;99806.97;8515879;27;20058;-73
2022/06/05 03:52:31;;;;;;;9.32;5.43;;;;;;;13.89;76.05;99809.34;8458732;27;20122;-74
2022/06/05 03:56:33;;;;;;;8.27;5.45;;;;;;;13.87;76.28;99806.13;8512028;27;20386;-74
2022/06/05 04:00:34;;;;;;;7.97;5.63;;;;;;;13.88;76.48;99807.75;8518961;27;20042;-73
2022/06/05 04:04:35;;;;;;;8.90;5.43;;;;;;;13.83;76.92;99810.59;8507995;27;20098;-73
2022/06/05 04:08:37;;;;;;;7.32;5.20;;;;;;;13.91;76.81;99811.72;8526607;27;20051;-72
2022/06/05 04:12:38;;;;;;;13.25;7.13;;;;;;;14.02;77.02;99818.47;8514825;27;20050;-72
2022/06/05 04:16:41;;;;;;;9.20;7.10;;;;;;;14.18;76.84;99800.66;8513677;27;20043;-72
2022/06/05 04:20:42;;;;;;;10.20;7.78;;;;;;;14.37;76.67;99797.69;8482978;27;20054;-72
2022/06/05 04:24:43;;;;;;;11.38;7.43;;;;;;;14.60;76.04;99812.75;8521346;27;20506;-71
2022/06/05 04:28:45;;;;;;;9.10;7.38;;;;;;;14.83;76.21;99804.47;8520394;27;20129;-73
2022/06/05 04:32:45;;;;;;;13.40;7.32;;;;;;;15.04;75.51;99789.09;8486069;27;20047;-74
2022/06/05 04:36:47;;;;;;;10.82;7.05;;;;;;;15.19;75.47;99802.19;8507317;27;20043;-72
2022/06/05 04:40:47;;;;;;;7.97;6.80;;;;;;;15.30;75.02;99802.66;8509893;27;20047;-72
2022/06/05 04:44:48;;;;;;;6.85;5.70;;;;;;;15.42;74.20;99813.69;8497219;27;20047;-73
2022/06/05 04:48:49;;;;;;;6.70;5.20;;;;;;;15.62;73.15;99811.09;8461681;27;20415;-73
2022/06/05 04:52:50;;;;;;;8.38;5.45;;;;;;;15.71;73.11;99807.56;8512417;27;20031;-73
2022/06/05 04:56:51;;;;;;;7.20;6.07;;;;;;;15.76;73.18;99810.09;8516182;27;20416;-73
2022/06/05 05:00:52;;;;;;;6.22;5.43;;;;;;;15.76;73.26;99804.66;8509913;27;20052;-73
2022/06/05 05:04:56;;;;;;;14.05;5.63;;;;;;;15.76;73.49;99810.09;8508884;27;20039;-72
2022/06/05 05:08:57;;;;;;;7.68;5.25;;;;;;;15.79;73.90;99814.91;8498787;27;20104;-73
2022/06/05 05:12:58;;;;;;;9.38;4.72;;;;;;;15.85;73.89;99810.88;8472980;27;20488;-73
2022/06/05 05:17:00;;;;;;;5.40;4.57;;;;;;;15.91;73.64;99812.31;8521295;27;20062;-72
2022/06/05 05:21:06;;;;;;;6.97;4.78;;;;;;;16.00;72.95;99810.34;8491948;27;20045;-72
2022/06/05 05:25:09;;;;;;;10.52;5.07;;;;;;;16.12;72.38;99813.16;8525058;27;20050;-72
2022/06/05 05:29:10;;;;;;;8.20;5.30;;;;;;;16.22;72.26;99812.81;8508757;27;20075;-72
2022/06/05 05:33:12;;;;;;;8.30;4.85;;;;;;;16.34;71.88;99803.88;8529326;27;20107;-73
2022/06/05 05:37:12;;;;;;;7.50;5.00;;;;;;;16.41;71.77;99799.53;8509124;27;20146;-72
2022/06/05 05:45:32;;;;;;;;;;;;;;;16.53;71.28;99795.28;8510587;27;20043;-72
2022/06/05 05:49:34;;;;;;;6.40;4.70;;;;;;;16.60;70.85;99790.16;8514362;27;19927;-74
2022/06/05 05:53:35;;;;;;;6.40;4.65;;;;;;;16.70;70.79;99792.47;8517147;27;20520;-71
2022/06/05 05:57:36;;;;;;;5.15;4.43;;;;;;;16.82;70.40;99782.41;8518406;27;20053;-71
2022/06/05 06:01:37;;;;;;;6.80;4.65;;;;;;;16.92;69.97;99781.19;8517353;27;20082;-73
2022/06/05 06:05:38;;;;;;;8.23;5.43;;;;;;;16.96;69.61;99782.16;8525673;27;20063;-72
2022/06/05 06:09:39;;;;;;;9.30;5.18;;;;;;;17.07;69.73;99788.81;8492472;27;20086;-72
2022/06/05 06:13:40;;;;;;;7.10;5.25;;;;;;;17.21;69.61;99777.59;8513400;27;20047;-73
2022/06/05 06:17:41;;;;;;;7.00;5.28;;;;;;;17.26;69.57;99778.16;8531851;27;20480;-71
2022/06/05 06:21:43;;;;;;;8.70;6.20;;;;;;;17.33;69.34;99779.56;8518196;27;20043;-72
2022/06/05 06:25:44;;;;;;;8.73;5.70;;;;;;;17.47;68.91;99785.50;8522755;27;20423;-72
2022/06/05 06:29:45;;;;;;;7.18;5.57;;;;;;;17.51;68.83;99786.41;8466047;27;20091;-72
2022/06/05 06:33:48;;;;;;;9.57;5.32;;;;;;;17.52;68.98;99788.00;8507187;27;20481;-72
2022/06/05 06:37:49;;;;;;;6.50;4.80;;;;;;;17.60;68.68;99784.44;8523376;27;20077;-72
2022/06/05 06:41:50;;;;;;;7.05;5.68;;;;;;;17.78;68.37;99780.34;8523791;27;20078;-72
2022/06/05 06:45:51;;;;;;;10.18;5.30;;;;;;;17.87;67.69;99783.75;8461271;27;20548;-72
2022/06/05 06:49:52;;;;;;;6.80;5.22;;;;;;;18.00;67.34;99782.66;8515399;27;20042;-72
2022/06/05 06:53:53;;;;;;;6.88;5.28;;;;;;;18.07;67.12;99782.88;8450850;27;20039;-73
2022/06/05 06:57:54;;;;;;;7.55;4.80;;;;;;;18.14;65.86;99777.63;8522082;27;20093;-72
2022/06/05 07:01:55;;;;;;;6.43;5.20;;;;;;;18.24;66.13;99770.13;8452729;27;20051;-73
2022/06/05 07:05:56;;;;;;;8.10;5.30;;;;;;;18.33;66.67;99779.00;8506471;27;20116;-72
2022/06/05 07:09:58;;;;;;;7.13;5.05;;;;;;;18.47;66.38;99784.88;8517530;27;20122;-72
2022/06/05 07:13:59;;;;;;;8.15;4.25;;;;;;;18.60;65.42;99778.28;8527259;27;20046;-72
2022/06/05 07:18:04;;;;;;;6.43;4.78;;;;;;;18.69;64.55;99776.22;8531257;27;20126;-73
2022/06/05 07:22:06;;;;;;;7.70;4.57;;;;;;;18.77;65.07;99778.00;8525133;27;20103;-74
2022/06/05 07:26:09;;;;;;;7.38;3.95;;;;;;;18.90;64.60;99787.78;8441314;27;20532;-72
2022/06/05 07:30:12;;;;;;;5.43;4.03;;;;;;;19.01;63.73;99788.09;8528617;27;20042;-72
2022/06/05 07:34:13;;;;;;;8.93;4.75;;;;;;;19.16;63.85;99775.59;8491311;27;20393;-74
2022/06/05 07:38:14;;;;;;;6.15;4.97;;;;;;;19.26;64.31;99777.81;8523693;27;20046;-73
2022/06/05 07:42:15;;;;;;;7.65;5.70;;;;;;;19.41;64.61;99775.09;8527161;27;20499;-73
2022/06/05 07:46:17;;;;;;;6.40;5.30;;;;;;;19.53;64.17;99777.00;8528522;27;20072;-72
2022/06/05 07:50:18;;;;;;;6.78;6.03;;;;;;;19.63;64.28;99776.50;8529277;27;20042;-73
2022/06/05 07:54:34;;;;;;;7.43;5.13;;;;;;;19.71;63.83;99766.50;8527123;27;20035;-72
2022/06/05 07:58:36;;;;;;;8.60;5.25;;;;;;;19.83;63.76;99764.47;8526935;27;20050;-72
2022/06/05 08:02:40;;;;;;;8.18;4.70;;;;;;;19.99;63.15;99771.88;8528007;27;20508;-73
2022/06/05 08:06:44;;;;;;;6.13;5.05;;;;;;;20.14;62.96;99762.88;8521621;27;20047;-73
2022/06/05 08:10:45;;;;;;;6.68;5.40;;;;;;;20.25;61.79;99764.69;8524770;27;20392;-72
2022/06/05 08:14:49;;;;;;;9.95;5.25;;;;;;;20.38;61.45;99762.66;8490137;27;20042;-72
2022/06/05 08:18:51;;;;;;;7.57;4.68;;;;;;;20.54;60.08;99755.19;8523615;27;20416;-71
2022/06/05 08:22:53;;;;;;;10.82;4.80;;;;;;;20.71;59.90;99764.16;8526241;27;20231;-72
2022/06/05 08:26:54;;;;;;;7.75;4.22;;;;;;;20.90;60.10;99762.19;8524872;27;20497;-72
2022/06/05 08:30:56;;;;;;;4.88;4.15;;;;;;;21.05;57.14;99758.56;8526021;27;20050;-72
2022/06/05 08:34:57;;;;;;;4.78;4.25;;;;;;;21.21;57.07;99749.47;8523521;27;20559;-72
2022/06/05 08:43:56;;;;;;;5.88;3.92;;;;;;;21.54;55.22;99743.41;8524878;27;20088;-73
2022/06/05 08:48:02;;;;;;;4.88;3.88;;;;;;;21.79;55.91;99744.63;8347877;28;20041;-74
2022/06/05 08:52:26;;;;;;;10.15;4.70;;;;;;;22.00;54.90;99742.25;8386246;28;20400;-72
2022/06/05 08:56:32;;;;;;;14.15;4.88;;;;;;;22.16;55.33;99739.34;8391277;28;20049;-73
2022/06/05 09:00:57;;;;;;;6.57;4.70;;;;;;;22.41;55.71;99736.97;8393057;28;20104;-73
2022/06/05 09:05:02;;;;;;;8.50;4.15;;;;;;;22.50;54.58;99737.47;8385923;28;20441;-72
2022/06/05 09:09:07;;;;;;;7.20;4.00;;;;;;;22.59;52.98;99740.72;8369814;28;20062;-70
2022/06/05 09:13:17;;;;;;;6.70;4.10;;;;;;;22.77;53.43;99741.78;8384535;28;20506;-72
2022/06/05 09:17:20;;;;;;;4.72;4.03;;;;;;;22.89;53.21;99733.28;8375493;28;20072;-73
2022/06/05 09:21:53;;;;;;;5.63;4.15;;;;;;;22.99;52.98;99740.88;8392465;28;20514;-72
2022/06/05 09:26:07;;;;;;;5.70;4.10;;;;;;;23.12;52.07;99742.19;8525441;27;20078;-72
2022/06/05 09:30:17;;;;;;;6.25;3.78;;;;;;;23.23;49.75;99730.50;8532933;27;20042;-72
2022/06/05 09:34:21;;;;;;;6.43;3.85;;;;;;;23.35;50.37;99727.47;8532966;27;20454;-73
2022/06/05 09:38:28;;;;;;;9.30;4.30;;;;;;;23.10;50.03;99728.03;8504609;27;20047;-72
2022/06/05 09:42:59;;;;;;;6.78;4.60;;;;;;;22.62;51.51;99728.97;8467855;27;20053;-71
2022/06/05 09:47:03;;;;;;;7.20;4.20;;;;;;;22.47;52.77;99727.22;8531519;27;20504;-73
2022/06/05 09:51:09;;;;;;;7.90;4.45;;;;;;;22.31;53.68;99725.41;8532278;27;20042;-73
2022/06/05 09:55:43;;;;;;;8.20;4.43;;;;;;;22.86;52.66;99723.00;8529250;27;20043;-73
2022/06/05 09:59:55;;;;;;;7.47;4.30;;;;;;;23.30;50.72;99716.78;8374625;28;20535;-73
2022/06/05 10:03:57;;;;;;;5.50;4.30;;;;;;;23.39;49.68;99718.06;8372147;28;20045;-73
2022/06/05 10:08:22;;;;;;;6.07;4.32;;;;;;;23.68;50.43;99713.63;8375916;28;20044;-73
2022/06/05 10:13:02;;;;;;;6.60;4.32;;;;;;;24.31;50.10;99707.00;8346410;28;20064;-73
2022/06/05 10:17:31;;;;;;;7.15;4.45;;;;;;;24.16;49.97;99705.31;8324446;28;20095;-72
2022/06/05 10:21:36;;;;;;;5.00;4.18;;;;;;;23.70;51.17;99705.75;8335206;28;20076;-72
2022/06/05 10:25:48;;;;;;;4.88;4.30;;;;;;;23.47;51.29;99702.41;8330621;28;20068;-73
2022/06/05 10:29:54;;;;;;;5.97;4.60;;;;;;;23.55;50.80;99695.78;8342514;28;20467;-75
2022/06/05 10:34:38;;;;;;;6.82;4.13;;;;;;;23.55;50.05;99699.34;8351392;28;20052;-73
2022/06/05 10:38:52;;;;;;;7.82;4.30;;;;;;;23.70;49.43;99688.41;8441352;28;20051;-71
2022/06/05 10:42:58;;;;;;;9.30;4.50;;;;;;;23.44;49.91;99692.09;8444862;27;20545;-72
2022/06/05 10:47:08;;;;;;;8.75;4.75;;;;;;;23.11;50.03;99685.50;8452325;27;20528;-71
2022/06/05 10:51:18;;;;;;;4.57;4.18;;;;;;;23.07;51.01;99681.13;8530037;27;20047;-71
2022/06/05 10:55:50;;;;;;;4.75;3.90;;;;;;;23.64;48.07;99674.19;8528607;27;20046;-72
2022/06/05 11:00:18;;;;;;;7.65;4.40;;;;;;;24.39;45.96;99675.47;8527746;27;20125;-72
2022/06/05 11:04:22;;;;;;;12.05;4.22;;;;;;;24.42;46.24;99674.72;8493554;27;20138;-72
2022/06/05 11:08:32;;;;;;;7.15;4.25;;;;;;;24.33;46.64;99677.03;8525782;27;20043;-72
2022/06/05 11:17:42;;;;;;;5.15;3.88;;;;;;;24.33;47.32;99668.75;8529445;27;20110;-74
2022/06/05 11:21:44;;;;;;;6.05;4.07;;;;;;;24.21;46.41;99669.09;8480876;27;20139;-73
2022/06/05 11:26:23;;;;;;;5.97;3.80;;;;;;;24.82;45.19;99655.13;8521575;27;20046;-72
2022/06/05 11:30:47;;;;;;;5.97;3.67;;;;;;;25.73;45.25;99641.03;8392298;28;20072;-72
2022/06/05 11:35:18;;;;;;;4.13;3.60;;;;;;;26.32;44.09;99637.34;8388817;28;20414;-73
2022/06/05 11:39:27;;;;;;;5.97;3.78;;;;;;;26.21;43.20;99628.25;8385948;28;20430;-72
2022/06/05 11:43:35;;;;;;;10.40;3.90;;;;;;;25.52;43.29;99626.00;8358690;28;20102;-72
2022/06/05 11:47:46;;;;;;;4.07;3.40;;;;;;;25.03;43.62;99626.00;8392900;28;20094;-73
2022/06/05 11:52:08;;;;;;;7.20;3.80;;;;;;;25.46;44.49;99622.06;8390320;28;20119;-72
2022/06/05 11:56:34;;;;;;;5.95;3.60;;;;;;;26.24;42.63;99621.94;8367042;28;20048;-72
2022/06/05 12:00:48;;;;;;;4.47;3.85;;;;;;;26.01;41.84;99613.31;8386565;28;20076;-71
2022/06/05 12:05:04;;;;;;;6.45;3.97;;;;;;;25.47;43.43;99607.06;8420047;27;20084;-72
2022/06/05 12:09:42;;;;;;;5.30;3.90;;;;;;;25.21;44.37;99599.16;8493668;27;20050;-72
2022/06/05 12:14:16;;;;;;;7.90;4.97;;;;;;;25.99;42.04;99593.53;8402460;28;20040;-72
2022/06/05 12:18:29;;;;;;;5.32;3.67;;;;;;;26.85;41.16;99594.72;8353225;28;20483;-71
2022/06/05 12:23:02;;;;;;;8.07;4.63;;;;;;;27.17;40.68;99587.00;8341169;28;20538;-72
2022/06/05 12:27:11;;;;;;;9.27;4.03;;;;;;;27.23;40.37;99582.56;8287351;28;20073;-73
2022/06/05 12:31:16;;;;;;;6.70;4.18;;;;;;;27.45;39.85;99582.38;8265516;28;20060;-72
2022/06/05 12:35:26;;;;;;;8.77;4.45;;;;;;;27.78;39.34;99567.81;8263447;28;20219;-72
2022/06/05 12:39:33;;;;;;;5.45;4.50;;;;;;;27.54;39.13;99568.88;8266907;28;20180;-73
2022/06/05 12:43:44;;;;;;;5.90;4.38;;;;;;;26.81;40.32;99571.78;8239810;28;20050;-73
2022/06/05 12:47:50;;;;;;;7.47;4.65;;;;;;;26.20;41.35;99565.78;8280332;28;20455;-73
2022/06/05 12:52:27;;;;;;;6.30;4.50;;;;;;;26.39;41.24;99562.53;8340841;28;20041;-73
2022/06/05 12:56:43;;;;;;;6.07;4.70;;;;;;;27.07;39.16;99546.28;8318600;28;20052;-73
2022/06/05 13:00:53;;;;;;;4.85;4.20;;;;;;;27.59;38.87;99537.91;8390499;28;20066;-74
2022/06/05 13:05:05;;;;;;;5.30;4.38;;;;;;;27.77;38.21;99537.69;8374367;28;20529;-73
2022/06/05 13:09:30;;;;;;;5.20;4.55;;;;;;;27.37;38.48;99550.38;8363380;28;20063;-72
2022/06/05 13:13:44;;;;;;;4.68;4.20;;;;;;;27.56;38.14;99544.25;8379479;28;20155;-72
2022/06/05 13:17:55;;;;;;;5.60;4.50;;;;;;;27.78;37.89;99534.50;8387955;28;20123;-72
2022/06/05 13:22:03;;;;;;;6.38;4.25;;;;;;;28.06;37.96;99531.41;8359077;28;20065;-72
2022/06/05 13:26:39;;;;;;;5.47;3.88;;;;;;;27.84;36.24;99532.88;8372752;28;20483;-72
2022/06/05 13:30:58;;;;;;;4.43;3.88;;;;;;;27.30;36.35;99532.59;8360830;28;20469;-72
2022/06/05 13:35:23;;;;;;;4.90;4.30;;;;;;;27.07;37.31;99529.63;8482668;27;20053;-72
2022/06/05 13:39:28;;;;;;;6.18;3.78;;;;;;;28.92;34.30;99512.31;8436305;27;20051;-72
2022/06/05 13:43:35;;;;;;;5.38;3.95;;;;;;;28.91;34.27;99513.56;8489876;27;20055;-72
2022/06/05 13:47:56;;;;;;;12.57;3.72;;;;;;;31.31;32.32;99504.09;8526071;27;20504;-73
2022/06/05 13:52:13;;;;;;;6.13;3.67;;;;;;;33.48;28.84;99504.63;8500814;27;20043;-73
2022/06/05 13:56:15;;;;;;;4.55;3.60;;;;;;;34.21;27.71;99504.41;8525523;27;20046;-73
2022/06/05 14:00:32;;;;;;;5.78;3.42;;;;;;;34.94;26.66;99504.69;8515875;27;20494;-73
2022/06/05 14:04:35;;;;;;;4.28;3.10;;;;;;;35.07;25.44;99505.31;8532175;27;20115;-73
2022/06/05 14:09:05;;;;;;;4.57;2.95;;;;;;;34.24;26.93;99503.47;8525558;27;20127;-72
2022/06/05 14:13:11;;;;;;;4.78;2.85;;;;;;;35.12;26.32;99493.47;8389402;28;20561;-73
2022/06/05 14:17:31;;;;;;;3.72;3.03;;;;;;;35.31;26.06;99489.47;8394248;28;20052;-74
2022/06/05 14:21:41;;;;;;;3.78;2.60;;;;;;;35.59;25.52;99471.34;8392665;28;20139;-71
2022/06/05 14:25:46;;;;;;;5.82;2.70;;;;;;;35.78;24.34;99460.13;8393671;28;20075;-70
2022/06/05 14:29:51;;;;;;;6.05;3.10;;;;;;;36.63;23.74;99461.72;8381211;28;20083;-71
2022/06/05 14:33:58;;;;;;;6.68;2.83;;;;;;;37.27;23.13;99452.84;8394412;28;20131;-70
2022/06/05 14:38:18;;;;;;;4.25;2.53;;;;;;;37.80;23.04;99453.63;8393090;28;20052;-70
2022/06/05 14:42:31;;;;;;;4.32;2.67;;;;;;;37.80;22.68;99447.97;8393469;28;20529;-71
2022/06/05 14:46:50;;;;;;;6.63;3.03;;;;;;;37.21;21.92;99445.06;8393125;28;20077;-71
2022/06/05 14:51:03;;;;;;;3.50;2.50;;;;;;;36.73;23.27;99443.53;8524097;27;20138;-71
2022/06/05 14:59:52;;;;;;;6.25;2.25;;;;;;;38.20;21.61;99433.28;8524488;27;20112;-71
2022/06/05 15:04:07;;;;;;;8.10;2.47;;;;;;;38.25;21.01;99423.34;8511811;27;20070;-71
2022/06/05 15:08:15;;;;;;;3.25;2.35;;;;;;;38.80;20.18;99424.16;8500653;27;20038;-71
2022/06/05 15:12:19;;;;;;;3.40;2.25;;;;;;;38.08;21.22;99425.13;8520825;27;20055;-71
2022/06/05 15:16:35;;;;;;;3.28;2.40;;;;;;;36.75;22.25;99424.13;8512498;27;20505;-69
2022/06/05 15:21:08;;;;;;;2.30;2.10;;;;;;;35.26;23.32;99402.28;8498111;27;20046;-70
2022/06/05 15:25:20;;;;;;;3.10;2.35;;;;;;;34.03;24.26;99403.38;8500861;27;20043;-71
2022/06/05 15:29:30;;;;;;;5.50;2.58;;;;;;;33.32;25.19;99400.44;8494905;27;20047;-71
2022/06/05 15:33:36;;;;;;;3.20;2.40;;;;;;;33.26;25.32;99396.69;8452401;27;20046;-71
2022/06/05 15:37:53;;;;;;;2.53;2.20;;;;;;;32.76;26.06;99392.81;8501715;27;20047;-71
2022/06/05 15:42:01;;;;;;;;;;;;;;;32.46;26.62;99385.81;8505587;27;20507;-71
2022/06/05 15:46:05;;;;;;;3.07;2.60;;;;;;;32.13;27.12;99379.69;8523552;27;19919;-71
2022/06/05 15:50:15;;;;;;;3.70;2.63;;;;;;;31.81;27.66;99385.47;8476978;27;20358;-71
2022/06/05 15:54:47;;;;;;;6.07;2.50;;;;;;;31.14;27.99;99382.63;8462671;27;20100;-71
2022/06/05 15:58:51;;;;;;;3.83;2.50;;;;;;;30.73;27.94;99379.72;8481494;27;20135;-70
2022/06/05 16:02:54;;;;;;;3.13;2.38;;;;;;;30.42;28.79;99388.41;8451787;27;20035;-71
2022/06/05 16:06:58;;;;;;;2.80;2.50;;;;;;;29.80;29.11;99381.09;8464164;27;20063;-71
2022/06/05 16:11:20;;;;;;;5.05;2.60;;;;;;;29.41;29.88;99387.50;8469749;27;20523;-71
2022/06/05 16:15:30;;;;;;;3.15;2.67;;;;;;;29.19;29.71;99394.66;8422355;28;20055;-71
2022/06/05 16:19:42;;;;;;;3.75;2.80;;;;;;;28.98;30.42;99388.31;8408592;28;20044;-70
2022/06/05 16:23:50;;;;;;;5.15;2.60;;;;;;;28.85;30.38;99384.59;8399809;28;20429;-70
2022/06/05 16:27:54;;;;;;;3.20;2.80;;;;;;;28.79;30.47;99391.84;8392520;28;20421;-69
2022/06/05 16:32:14;;;;;;;4.40;2.50;;;;;;;29.53;29.84;99395.19;8401528;28;20606;-71
2022/06/05 16:40:42;;;;;;;3.63;2.92;;;;;;;31.72;26.93;99385.34;8405114;28;20212;-70
2022/06/05 16:45:01;;;;;;;4.30;2.58;;;;;;;33.06;25.47;99386.53;8406284;28;20052;-72
2022/06/05 16:49:08;;;;;;;4.95;2.42;;;;;;;33.67;24.10;99387.94;8419741;28;20547;-70
2022/06/05 16:53:31;;;;;;;7.30;2.45;;;;;;;33.15;24.45;99387.88;8489757;27;20396;-70
2022/06/05 16:57:47;;;;;;;3.13;2.50;;;;;;;30.98;26.45;99383.44;8509407;27;20115;-70
2022/06/05 17:01:56;;;;;;;3.47;2.50;;;;;;;29.53;28.64;99377.72;8515426;27;20404;-73
2022/06/05 17:06:35;;;;;;;3.17;2.55;;;;;;;28.55;30.00;99370.81;8467957;27;20042;-72
2022/06/05 17:10:39;;;;;;;4.38;2.70;;;;;;;27.79;31.37;99372.38;8476933;27;20115;-71
2022/06/05 17:14:40;;;;;;;4.60;2.75;;;;;;;27.04;32.38;99364.16;8511611;27;20083;-71
2022/06/05 17:18:53;;;;;;;3.30;2.60;;;;;;;26.59;33.11;99348.78;8530970;27;20051;-71
2022/06/05 17:23:00;;;;;;;5.10;2.80;;;;;;;26.32;33.97;99346.63;8534684;27;20091;-71
2022/06/05 17:27:34;;;;;;;4.23;2.97;;;;;;;26.03;33.71;99336.94;8522437;27;20133;-74
2022/06/05 17:32:13;;;;;;;4.93;3.22;;;;;;;25.81;34.23;99338.25;8486572;27;20488;-71
2022/06/05 17:36:25;;;;;;;4.53;3.07;;;;;;;25.66;34.20;99343.09;8517407;27;20046;-72
2022/06/05 17:41:07;;;;;;;3.25;2.58;;;;;;;25.44;34.85;99350.69;8522768;27;20466;-71
2022/06/05 17:45:42;;;;;;;5.28;2.80;;;;;;;25.29;34.62;99335.38;8524038;27;20400;-71
2022/06/05 17:50:02;;;;;;;4.40;2.70;;;;;;;25.16;35.10;99348.06;8491658;27;20522;-71
2022/06/05 17:54:25;;;;;;;3.28;2.72;;;;;;;24.90;36.25;99340.25;8518463;27;20039;-72
2022/06/05 17:58:31;;;;;;;5.68;3.20;;;;;;;24.80;36.12;99337.06;8528403;27;20060;-71
2022/06/05 18:02:32;;;;;;;4.10;2.83;;;;;;;24.66;36.37;99342.63;8486913;27;20038;-71
2022/06/05 18:06:41;;;;;;;4.88;3.20;;;;;;;24.43;36.61;99328.44;8515978;27;20117;-71
2022/06/05 18:11:14;;;;;;;4.93;3.10;;;;;;;24.25;37.39;99338.72;8501311;27;20054;-71
2022/06/05 18:15:20;;;;;;;3.65;2.95;;;;;;;24.04;37.79;99344.19;8361449;28;20123;-72
2022/06/05 18:19:31;;;;;;;8.45;2.65;;;;;;;23.84;38.33;99344.59;8344928;28;20044;-72
2022/06/05 18:23:40;;;;;;;3.42;3.00;;;;;;;23.70;38.71;99333.50;8335082;28;20092;-71
2022/06/05 18:28:03;;;;;;;;;;;;;;;23.41;39.34;99334.59;8326879;28;20042;-72
2022/06/05 18:32:14;;;;;;;3.28;2.97;;;;;;;23.14;40.34;99326.63;8327923;28;19967;-71
2022/06/05 18:40:43;;;;;;;7.82;3.60;;;;;;;22.77;41.23;99322.47;8327128;28;20053;-72
2022/06/05 18:44:46;;;;;;;4.30;3.30;;;;;;;22.64;41.76;99319.22;8293266;28;20042;-71
2022/06/05 18:48:48;;;;;;;5.18;3.35;;;;;;;22.52;41.87;99316.78;8288313;28;20062;-71
2022/06/05 18:52:52;;;;;;;4.90;3.45;;;;;;;22.31;42.44;99318.19;8401516;28;20051;-71
2022/06/05 18:57:09;;;;;;;3.97;3.50;;;;;;;22.27;42.74;99322.91;8438407;27;20111;-71
2022/06/05 19:01:21;;;;;;;4.27;3.73;;;;;;;22.16;43.01;99322.00;8523663;27;20095;-71
2022/06/05 19:05:24;;;;;;;7.03;3.65;;;;;;;22.05;43.29;99323.88;8496155;27;20054;-72
2022/06/05 19:09:28;;;;;;;6.53;3.90;;;;;;;21.95;43.55;99326.53;8520238;27;20054;-71
2022/06/05 19:13:35;;;;;;;4.38;3.97;;;;;;;21.91;43.77;99326.47;8502070;27;20048;-72
2022/06/05 19:17:52;;;;;;;7.13;3.83;;;;;;;21.79;44.30;99326.75;8517230;27;20050;-71
2022/06/05 19:22:20;;;;;;;5.05;3.80;;;;;;;21.68;44.70;99328.63;8514935;27;20031;-72
2022/06/05 19:26:24;;;;;;;4.75;4.22;;;;;;;21.57;45.13;99344.22;8392468;28;20067;-72
2022/06/05 19:30:37;;;;;;;6.50;4.43;;;;;;;21.45;45.97;99348.78;8395133;28;20044;-71
2022/06/05 19:35:00;;;;;;;8.13;4.22;;;;;;;21.35;46.40;99349.47;8357231;28;20056;-71
2022/06/05 19:39:05;;;;;;;6.95;4.28;;;;;;;21.20;47.14;99344.97;8352916;28;20060;-71
2022/06/05 19:43:28;;;;;;;7.63;4.60;;;;;;;21.13;47.41;99366.81;8357614;28;20606;-71
2022/06/05 19:47:33;;;;;;;7.85;4.50;;;;;;;21.08;47.84;99367.13;8323545;28;20053;-71
2022/06/05 19:51:37;;;;;;;5.72;4.38;;;;;;;20.98;48.20;99378.75;8305493;28;20055;-71
2022/06/05 19:55:39;;;;;;;6.38;4.43;;;;;;;20.89;48.49;99391.94;8324024;28;20041;-71
2022/06/05 19:59:41;;;;;;;7.07;4.88;;;;;;;20.80;48.93;99385.94;8318908;28;20045;-71
2022/06/05 20:03:55;;;;;;;6.18;4.53;;;;;;;20.70;49.38;99394.81;8441442;27;20133;-71